首页
METAR-TAF:

METAR-TAF

机场 :

卡拉马祖 / 巴特爾克里克, 密歇根州, 美国

纬度: 42-13-45N, 经度: 085-32-47W, 海拔: 266米

当前天气观测

该预报发布于48分钟前的17:53 UTC
风速9节,风向西南
温度 28°C
湿度 42%
气压 1019 hPa
能見度: 16.1公里
天空无云

METAR: KAZO 261753Z 22009KT 10SM CLR 28/14 A3009 RMK AO2 SLP184 T02830144 10289 20222 51004

时间: 14:41 (18:41 UTC)

预报

该预报发布于1小时和1分钟前的17:40 UTC
预报有效从26日的 18点(UTC)到 27日的 18点(UTC)
风速8节,风向西转西南
能見度: 10公里
少量云层高于25000英尺
从 27日的 0100点(UTC)
风速3节,风向多变
能見度: 10公里
少量云层高于25000英尺
从 27日的 1600点(UTC)
风速8节,风向
能見度: 10公里
散云层高于20000英尺

TAF: KAZO 261740Z 2618/2718 24008KT P6SM FEW250 FM270100 VRB03KT P6SM FEW250 FM271600 18008KT P6SM SCT200

超过4000个机场的气象观测和天气预报(METAR&TAF报告)。

可查询的气象台以黄色和红色小点在地图上表示。

将鼠标移到小点上方,可查看气象台名称。

然后点击查看天气观测和预报。

如需切换地图:点击带黑十字的绿色按钮放大地图;点击带横线的绿色按钮缩小地图;或者点击绿色箭头查看邻近地区的地图。


METAR-TAF: